createdAt,value
2022-08-10T00:09:53.511Z,1.10
2022-08-10T00:20:04.226Z,1.05
2022-08-10T00:30:13.442Z,1.17
2022-08-10T00:40:18.083Z,1.30
2022-08-10T00:50:38.619Z,1.15
2022-08-10T01:00:43.888Z,1.20
2022-08-10T01:10:54.578Z,1.27
2022-08-10T01:21:19.411Z,1.30
2022-08-10T01:31:27.950Z,1.10
2022-08-10T01:41:45.635Z,1.10
2022-08-10T01:51:52.793Z,1.30
2022-08-10T02:01:58.361Z,1.50
2022-08-10T02:12:08.568Z,1.42
2022-08-10T02:22:37.753Z,1.23
2022-08-10T02:32:38.710Z,1.48
2022-08-10T02:45:20.595Z,1.30
2022-08-10T02:53:55.576Z,1.30
2022-08-10T03:03:41.322Z,1.30
2022-08-10T03:13:59.567Z,1.35
2022-08-10T03:24:04.175Z,1.95
2022-08-10T03:34:33.360Z,1.62
2022-08-10T03:44:37.382Z,1.27
2022-08-10T03:54:42.338Z,1.48
2022-08-10T04:04:45.617Z,1.33
2022-08-10T04:14:52.766Z,1.30
2022-08-10T04:25:00.749Z,1.30
2022-08-10T04:35:06.564Z,1.42
2022-08-10T04:45:11.960Z,1.30
2022-08-10T04:55:16.929Z,1.05
2022-08-10T05:05:20.340Z,2.22
2022-08-10T05:15:24.957Z,1.33
2022-08-10T05:25:28.099Z,1.10
2022-08-10T05:35:55.224Z,1.20
2022-08-10T05:46:18.841Z,1.00
2022-08-10T05:56:21.586Z,1.30
2022-08-10T06:06:25.161Z,1.20
2022-08-10T06:16:30.464Z,1.20
2022-08-10T06:26:34.405Z,1.20
2022-08-10T06:36:39.784Z,1.08
2022-08-10T06:46:46.614Z,1.08
2022-08-10T06:57:16.489Z,0.95
2022-08-10T07:07:20.034Z,1.00
2022-08-10T07:17:26.954Z,1.00
2022-08-10T07:27:40.695Z,1.35
2022-08-10T07:37:56.117Z,1.27
2022-08-10T07:48:06.639Z,1.02
2022-08-10T07:58:12.912Z,1.08
2022-08-10T08:08:16.757Z,1.20
2022-08-10T08:18:25.442Z,0.90
2022-08-10T08:28:29.593Z,0.90
2022-08-10T08:38:35.067Z,1.67
2022-08-10T08:49:07.600Z,1.95
2022-08-10T08:59:25.193Z,0.93
2022-08-10T09:09:43.321Z,1.00
2022-08-10T09:19:52.497Z,0.60
2022-08-10T09:29:57.233Z,0.63
2022-08-10T09:41:00.229Z,0.90
2022-08-10T09:51:16.437Z,0.80
2022-08-10T10:01:23.606Z,0.88
2022-08-10T10:11:43.082Z,0.70
2022-08-10T10:21:55.819Z,0.70
2022-08-10T10:32:03.931Z,0.70
2022-08-10T10:42:34.997Z,0.77
2022-08-10T10:52:46.515Z,0.57
2022-08-10T11:03:05.280Z,0.60
2022-08-10T11:14:25.628Z,0.40
2022-08-10T11:24:48.978Z,0.70
2022-08-10T11:34:47.091Z,0.73
2022-08-10T11:44:48.593Z,0.50
2022-08-10T11:54:55.083Z,0.65
2022-08-10T12:05:02.934Z,0.57
2022-08-10T12:15:12.483Z,0.80
2022-08-10T12:25:57.345Z,0.40
2022-08-10T12:36:16.816Z,0.30
2022-08-10T12:46:20.198Z,0.63
2022-08-10T12:56:26.395Z,0.47
2022-08-10T13:06:31.969Z,0.50
2022-08-10T13:16:35.899Z,0.85
2022-08-10T13:27:14.493Z,0.82
2022-08-10T13:37:11.190Z,0.60
2022-08-10T13:47:19.050Z,0.52
2022-08-10T13:57:26.630Z,0.52
2022-08-10T14:07:33.259Z,0.55
2022-08-10T14:17:44.124Z,0.60
2022-08-10T14:28:02.632Z,0.47
2022-08-10T14:38:11.050Z,0.73
2022-08-10T14:48:18.770Z,0.65
2022-08-10T14:58:26.991Z,0.77
2022-08-10T15:08:37.002Z,0.80
2022-08-10T15:18:43.197Z,0.57
2022-08-10T15:29:23.542Z,0.50
2022-08-10T15:40:24.694Z,0.57
2022-08-10T15:50:01.973Z,0.70
2022-08-10T16:00:08.461Z,0.60
2022-08-10T16:10:25.346Z,0.70
2022-08-10T16:20:32.508Z,0.90
2022-08-10T16:30:43.172Z,0.90
2022-08-10T16:40:47.851Z,1.12
2022-08-10T16:50:55.539Z,1.00
2022-08-10T17:01:02.744Z,1.02
2022-08-10T17:11:07.507Z,1.00
2022-08-10T17:21:21.403Z,0.70
2022-08-10T17:31:53.506Z,0.80
2022-08-10T17:41:54.175Z,0.80
2022-08-10T17:51:59.409Z,0.80
2022-08-10T18:02:06.507Z,0.90
2022-08-10T18:12:17.847Z,1.00
2022-08-10T18:22:22.234Z,0.95
2022-08-10T18:32:27.483Z,1.60
2022-08-10T18:42:35.442Z,1.33
2022-08-10T18:52:42.268Z,1.12
2022-08-10T19:03:06.318Z,1.20
2022-08-10T19:13:19.818Z,1.52
2022-08-10T19:23:40.856Z,1.70
2022-08-10T19:33:52.595Z,1.45
2022-08-10T19:44:20.322Z,1.25
2022-08-10T19:54:33.963Z,1.55
2022-08-10T20:04:44.342Z,1.30
2022-08-10T20:14:53.010Z,1.30
2022-08-10T20:25:01.623Z,1.30
2022-08-10T20:35:09.387Z,1.62
2022-08-10T20:45:21.548Z,1.50
2022-08-10T20:55:28.876Z,2.20
2022-08-10T21:05:36.111Z,1.52
2022-08-10T21:15:59.528Z,1.50
2022-08-10T21:26:10.017Z,1.40
2022-08-10T21:36:18.792Z,1.30
2022-08-10T21:46:54.700Z,1.33
2022-08-10T21:57:24.838Z,1.20
2022-08-10T22:07:48.292Z,1.05
2022-08-10T22:18:11.020Z,1.30
2022-08-10T22:28:33.800Z,1.45
2022-08-10T22:39:09.562Z,1.92
2022-08-10T22:49:12.949Z,1.20
2022-08-10T22:59:27.144Z,1.27
2022-08-10T23:09:30.739Z,1.17
2022-08-10T23:19:37.433Z,1.20
2022-08-10T23:30:02.010Z,1.00
2022-08-10T23:40:11.947Z,1.25
2022-08-10T23:50:17.169Z,1.12
